EA8URU-13 Weather Reports


time (UTC)temp
C
wind
direction
speed
KPH
gust
KPH
rain 1hr
cm
rain 24hr
cm
rain mn
cm
humidity
%
barometer
mb
20260505073049 16 0 0.0 3.2 0.00 0.00 0.00 87 1014.3
20260505071555 16 0 0.0 3.2 0.00 0.00 0.00 87 1014.2
20260505070047 16 0 0.0 4.8 0.00 0.00 0.00 87 1014.3
20260505064547 16 0 0.0 4.8 0.00 0.00 0.00 87 1014.2
20260505063051 16 39 1.6 6.4 0.00 0.00 0.00 86 1014.0
20260505061552 16 0 1.6 6.4 0.00 0.00 0.00 86 1014.0
20260505060055 16 0 1.6 4.8 0.00 0.00 0.00 86 1013.7
20260505054556 16 0 0.0 1.6 0.00 0.00 0.00 87 1013.7
20260505053049 16 0 0.0 3.2 0.00 0.00 0.00 87 1013.7
20260505051548 16 0 0.0 0.0 0.00 0.00 0.00 87 1013.7
20260505041548 16 0 0.0 1.6 0.00 0.00 0.00 88 1014.1
20260505040050 16 0 0.0 1.6 0.00 0.00 0.00 88 1014.3
20260505034552 16 0 0.0 0.0 0.00 0.00 0.00 88 1014.1
20260505033052 16 0 0.0 4.8 0.00 0.00 0.00 88 1014.0
20260505031552 16 0 0.0 3.2 0.00 0.00 0.00 88 1014.2
20260505030059 16 334 0.0 1.6 0.00 0.00 0.00 88 1014.2
20260505024552 16 0 0.0 1.6 0.00 0.00 0.00 88 1014.3
20260505023052 16 0 0.0 3.2 0.00 0.00 0.00 88 1014.4
20260505021550 16 0 0.0 3.2 0.00 0.00 0.00 88 1014.6
20260505020054 16 0 0.0 4.8 0.00 0.00 0.00 88 1015.0
20260505014555 16 59 0.0 3.2 0.00 0.00 0.00 88 1015.1
20260505013047 16 0 0.0 4.8 0.00 0.00 0.00 87 1015.4
20260505011551 16 0 0.0 3.2 0.00 0.00 0.00 87 1015.5
20260505010108 17 0 0.0 6.4 0.00 0.00 0.00 87 1015.7
20260505004553 17 45 0.0 3.2 0.00 0.00 0.00 87 1015.8
20260505003049 17 0 0.0 6.4 0.00 0.00 0.00 87 1016.1
20260505001547 17 0 0.0 4.8 0.00 0.00 0.00 88 1016.3
20260505000049 17 0 0.0 4.8 0.00 0.00 0.00 88 1016.3
20260504234554 17 0 0.0 4.8 0.00 0.00 0.00 88 1016.4
20260504233051 17 0 0.0 3.2 0.00 0.00 0.00 88 1016.6
20260504231548 17 58 0.0 1.6 0.00 0.00 0.00 88 1016.7
20260504230055 17 49 0.0 4.8 0.00 0.00 0.00 88 1016.7
20260504224558 17 55 0.0 4.8 0.00 0.00 0.00 88 1016.5
20260504223100 17 0 0.0 1.6 0.00 0.00 0.00 88 1016.5
20260504221601 17 54 0.0 3.2 0.00 0.00 0.00 87 1016.4
20260504220055 17 0 0.0 6.4 0.00 0.00 0.00 87 1016.3
20260504214559 17 55 0.0 4.8 0.00 0.00 0.00 87 1016.3
20260504213103 17 59 1.6 6.4 0.00 0.00 0.00 86 1016.1
20260504211551 17 71 0.0 4.8 0.00 0.00 0.00 86 1016.0
20260504210054 17 52 1.6 6.4 0.00 0.00 0.00 85 1015.8
20260504204553 17 0 1.6 6.4 0.00 0.00 0.00 84 1015.7
20260504203052 17 0 0.0 6.4 0.00 0.00 0.00 83 1015.5
20260504201553 17 51 3.2 8.0 0.00 0.00 0.00 81 1015.3
20260504200053 18 63 1.6 9.7 0.00 0.00 0.00 76 1015.2
20260504194556 18 52 4.8 11.3 0.00 0.00 0.00 74 1015.2
20260504193048 18 46 3.2 11.3 0.00 0.00 0.00 73 1015.1
20260504191546 18 53 4.8 11.3 0.00 0.00 0.00 71 1014.9
20260504190050 18 108 3.2 9.7 0.00 0.00 0.00 67 1015.0
20260504184549 19 56 4.8 12.9 0.00 0.00 0.00 65 1015.0
20260504183048 20 63 4.8 12.9 0.00 0.00 0.00 64 1014.7
20260504181551 20 352 4.8 12.9 0.00 0.00 0.00 65 1014.7
20260504180051 20 116 3.2 12.9 0.00 0.00 0.00 66 1014.8
20260504174550 20 77 4.8 12.9 0.00 0.00 0.00 65 1014.9
20260504173050 20 35 6.4 16.1 0.00 0.00 0.00 66 1014.9
20260504171554 20 0 6.4 17.7 0.00 0.00 0.00 65 1014.7
20260504150108 21 56 6.4 16.1 0.00 0.00 0.00 67 1015.1
20260504081556 18 35 4.8 11.3 0.00 0.00 0.00 77 1016.2
20260504080110 18 63 6.4 12.9 0.00 0.00 0.00 78 1016.3